Time;durP1;ratioP1;P1;durP2;ratioP2;P2;SDS_P1;SDS_P2;PMS_P1;PMS_P2;Temp;Humidity;BMP_temperature;BMP_pressure;BME280_temperature;BME280_humidity;BME280_pressure;Samples;Min_cycle;Max_cycle;Signal;HPM_P1;HPM_P2
2023/05/18 00:01:53;;;;;;;4.23;1.97;;;;;;;;;;4993661;28;20211;-68
2023/05/18 00:04:22;;;;;;;4.30;2.23;;;;;;;;;;4992066;28;20232;-70
2023/05/18 00:06:47;;;;;;;5.40;1.97;;;;;;;;;;4994272;28;20189;-70
2023/05/18 00:09:13;;;;;;;4.30;1.70;;;;;;;;;;4993352;28;20218;-70
2023/05/18 00:11:39;;;;;;;7.40;1.73;;;;;;;;;;4993028;28;20175;-70
2023/05/18 00:14:06;;;;;;;6.07;1.57;;;;;;;;;;4998863;22;20187;-76
2023/05/18 00:16:31;;;;;;;7.40;2.27;;;;;;;;;;4997383;28;20184;-75
2023/05/18 00:18:56;;;;;;;5.03;1.80;;;;;;;;;;4992882;28;20211;-76
2023/05/18 00:21:22;;;;;;;3.03;1.60;;;;;;;;;;4995363;28;20179;-76
2023/05/18 00:23:49;;;;;;;3.50;2.53;;;;;;;;;;4996645;28;20218;-75
2023/05/18 00:26:14;;;;;;;3.37;2.00;;;;;;;;;;4997343;28;20186;-75
2023/05/18 00:28:39;;;;;;;2.30;1.80;;;;;;;;;;4994045;28;20179;-75
2023/05/18 00:31:06;;;;;;;7.10;2.67;;;;;;;;;;4990589;28;20211;-75
2023/05/18 00:33:31;;;;;;;6.17;2.37;;;;;;;;;;4994731;28;20195;-74
2023/05/18 00:35:56;;;;;;;6.83;2.13;;;;;;;;;;4987863;28;20207;-75
2023/05/18 00:38:21;;;;;;;4.63;2.40;;;;;;;;;;4992675;28;20660;-75
2023/05/18 00:40:46;;;;;;;3.10;1.77;;;;;;;;;;4990180;28;20175;-75
2023/05/18 00:43:12;;;;;;;3.27;1.70;;;;;;;;;;4986732;28;20557;-74
2023/05/18 00:45:37;;;;;;;6.80;2.37;;;;;;;;;;4991555;28;20892;-74
2023/05/18 00:48:02;;;;;;;7.63;2.60;;;;;;;;;;4992703;28;20218;-74
2023/05/18 00:50:28;;;;;;;4.90;1.70;;;;;;;;;;4994245;28;20176;-74
2023/05/18 00:52:53;;;;;;;7.50;2.23;;;;;;;;;;4993879;28;20195;-75
2023/05/18 00:55:19;;;;;;;5.03;1.80;;;;;;;;;;4989482;28;20202;-74
2023/05/18 00:57:46;;;;;;;5.63;2.10;;;;;;;;;;4992573;28;20180;-75
2023/05/18 01:00:12;;;;;;;10.67;3.30;;;;;;;;;;4991958;28;20189;-74
2023/05/18 01:02:41;;;;;;;5.23;2.27;;;;;;;;;;4992482;28;20188;-74
2023/05/18 01:05:07;;;;;;;5.43;1.80;;;;;;;;;;4990710;28;20600;-74
2023/05/18 01:07:33;;;;;;;8.00;2.10;;;;;;;;;;4993217;28;20184;-75
2023/05/18 01:09:58;;;;;;;7.37;2.30;;;;;;;;;;5007968;28;20780;-75
2023/05/18 01:12:28;;;;;;;10.80;2.37;;;;;;;;;;4992150;28;20247;-75
2023/05/18 01:15:00;;;;;;;7.83;1.83;;;;;;;;;;4992354;28;20211;-75
2023/05/18 01:17:44;;;;;;;3.67;2.07;;;;;;;;;;4992241;28;20195;-75
2023/05/18 01:20:28;;;;;;;2.80;1.67;;;;;;;;;;4984730;28;20182;-75
2023/05/18 01:22:56;;;;;;;4.77;1.67;;;;;;;;;;4987398;28;20274;-75
2023/05/18 01:25:42;;;;;;;4.80;2.40;;;;;;;;;;4990643;28;20666;-75
2023/05/18 01:28:12;;;;;;;4.07;2.00;;;;;;;;;;4985579;28;20811;-75
2023/05/18 01:30:40;;;;;;;3.23;1.90;;;;;;;;;;4988072;28;20190;-75
2023/05/18 01:33:05;;;;;;;4.20;1.70;;;;;;;;;;4989776;28;20191;-75
2023/05/18 01:35:31;;;;;;;10.97;2.47;;;;;;;;;;4994272;28;20203;-75
2023/05/18 01:37:56;;;;;;;4.40;1.77;;;;;;;;;;4994060;28;20183;-75
2023/05/18 01:40:22;;;;;;;5.13;2.70;;;;;;;;;;4990940;28;20188;-75
2023/05/18 01:42:50;;;;;;;5.13;2.40;;;;;;;;;;4989154;28;20249;-75
2023/05/18 01:45:20;;;;;;;4.80;1.97;;;;;;;;;;4976420;28;20295;-74
2023/05/18 01:47:47;;;;;;;8.70;2.13;;;;;;;;;;4986183;28;20191;-74
2023/05/18 01:50:13;;;;;;;8.87;2.23;;;;;;;;;;4989382;28;20202;-74
2023/05/18 01:52:38;;;;;;;3.97;1.93;;;;;;;;;;4989356;28;20171;-74
2023/05/18 01:55:05;;;;;;;3.47;2.50;;;;;;;;;;4985807;28;20207;-74
2023/05/18 01:57:31;;;;;;;3.27;2.40;;;;;;;;;;4983429;28;20192;-75
2023/05/18 02:00:00;;;;;;;4.50;1.80;;;;;;;;;;4985559;28;20191;-75
2023/05/18 02:02:25;;;;;;;11.63;2.63;;;;;;;;;;4999107;28;20195;-74
2023/05/18 02:04:50;;;;;;;4.97;2.20;;;;;;;;;;4985138;28;20214;-74
2023/05/18 02:07:16;;;;;;;4.90;2.47;;;;;;;;;;4984885;28;20219;-75
2023/05/18 02:09:43;;;;;;;6.23;2.03;;;;;;;;;;4983914;28;20577;-74
2023/05/18 02:12:08;;;;;;;4.60;2.10;;;;;;;;;;4979166;28;20191;-75
2023/05/18 02:14:33;;;;;;;3.13;1.70;;;;;;;;;;4981449;28;20241;-74
2023/05/18 02:16:59;;;;;;;7.00;2.33;;;;;;;;;;4991508;28;20183;-75
2023/05/18 02:19:25;;;;;;;4.60;2.20;;;;;;;;;;4987065;28;20184;-74
2023/05/18 02:21:50;;;;;;;3.47;1.77;;;;;;;;;;4992751;28;20175;-75
2023/05/18 02:24:16;;;;;;;4.67;2.43;;;;;;;;;;4991208;28;20195;-74
2023/05/18 02:26:41;;;;;;;6.77;2.60;;;;;;;;;;4992323;28;20179;-75
2023/05/18 02:29:10;;;;;;;4.67;2.13;;;;;;;;;;4991792;28;20639;-74
2023/05/18 02:31:35;;;;;;;8.90;2.33;;;;;;;;;;4984438;28;20179;-75
2023/05/18 02:34:01;;;;;;;4.73;1.87;;;;;;;;;;4986133;28;20190;-75
2023/05/18 02:36:26;;;;;;;3.53;2.27;;;;;;;;;;4990047;28;20668;-75
2023/05/18 02:38:51;;;;;;;4.33;1.87;;;;;;;;;;4989471;28;20657;-74
2023/05/18 02:41:17;;;;;;;4.40;2.30;;;;;;;;;;4988067;28;20191;-74
2023/05/18 02:43:42;;;;;;;3.53;1.90;;;;;;;;;;4994081;28;20190;-75
2023/05/18 02:46:07;;;;;;;3.50;1.73;;;;;;;;;;4991043;28;20234;-75
2023/05/18 02:48:32;;;;;;;7.83;2.27;;;;;;;;;;4992349;28;20243;-75
2023/05/18 02:50:58;;;;;;;6.13;1.63;;;;;;;;;;4987768;28;20176;-75
2023/05/18 02:53:23;;;;;;;8.43;2.27;;;;;;;;;;5000153;28;20183;-74
2023/05/18 02:55:48;;;;;;;5.50;2.40;;;;;;;;;;4994259;28;20231;-74
2023/05/18 02:58:14;;;;;;;5.63;1.97;;;;;;;;;;4994304;28;20183;-74
2023/05/18 03:00:40;;;;;;;4.87;2.27;;;;;;;;;;4991005;28;20187;-74
2023/05/18 03:03:05;;;;;;;5.57;1.73;;;;;;;;;;4992936;28;20631;-76
2023/05/18 03:05:31;;;;;;;5.23;1.90;;;;;;;;;;4990878;28;20226;-75
2023/05/18 03:07:56;;;;;;;4.53;1.90;;;;;;;;;;4994430;28;20186;-75
2023/05/18 03:10:21;;;;;;;6.30;2.17;;;;;;;;;;4991166;28;20171;-75
2023/05/18 03:12:47;;;;;;;5.57;2.23;;;;;;;;;;4998316;28;20190;-74
2023/05/18 03:15:15;;;;;;;4.50;2.17;;;;;;;;;;4994564;28;20203;-74
2023/05/18 03:17:41;;;;;;;4.80;1.87;;;;;;;;;;4992093;28;20559;-75
2023/05/18 03:20:10;;;;;;;3.93;1.60;;;;;;;;;;4995610;28;20203;-75
2023/05/18 03:22:35;;;;;;;7.50;3.00;;;;;;;;;;5010811;28;20230;-75
2023/05/18 03:25:01;;;;;;;5.33;1.90;;;;;;;;;;4995509;28;20199;-75
2023/05/18 03:27:26;;;;;;;5.70;2.67;;;;;;;;;;5010875;28;20211;-75
2023/05/18 03:29:52;;;;;;;4.97;2.57;;;;;;;;;;4993616;28;20207;-75
2023/05/18 03:32:17;;;;;;;7.40;1.90;;;;;;;;;;4997374;28;20266;-75
2023/05/18 03:34:43;;;;;;;5.70;1.87;;;;;;;;;;4982857;28;20294;-75
2023/05/18 03:37:08;;;;;;;3.90;2.03;;;;;;;;;;4997659;28;20179;-75
2023/05/18 03:39:34;;;;;;;4.23;2.30;;;;;;;;;;4990196;28;20180;-75
2023/05/18 03:41:59;;;;;;;6.47;2.00;;;;;;;;;;4996924;28;20180;-74
2023/05/18 03:44:25;;;;;;;6.20;2.10;;;;;;;;;;4989357;28;20199;-75
2023/05/18 03:46:50;;;;;;;3.73;1.90;;;;;;;;;;4992167;28;20226;-74
2023/05/18 03:49:15;;;;;;;8.17;2.23;;;;;;;;;;4993034;28;20693;-75
2023/05/18 03:51:40;;;;;;;8.70;2.30;;;;;;;;;;4996503;28;20665;-75
2023/05/18 03:54:05;;;;;;;3.47;2.00;;;;;;;;;;4994232;28;20303;-75
2023/05/18 03:56:31;;;;;;;6.83;2.10;;;;;;;;;;4997281;28;20180;-75
2023/05/18 03:58:57;;;;;;;6.10;2.43;;;;;;;;;;4992229;28;20195;-75
2023/05/18 04:01:23;;;;;;;5.10;2.10;;;;;;;;;;4993306;28;20176;-75
2023/05/18 04:03:49;;;;;;;4.77;2.40;;;;;;;;;;4997920;28;20206;-75
2023/05/18 04:06:14;;;;;;;10.20;2.53;;;;;;;;;;4996847;28;20262;-75
2023/05/18 04:08:40;;;;;;;7.17;2.80;;;;;;;;;;5001324;28;20237;-75
2023/05/18 04:11:06;;;;;;;5.97;2.10;;;;;;;;;;4994066;28;20691;-75
2023/05/18 04:13:31;;;;;;;3.13;2.17;;;;;;;;;;4995612;28;20179;-75
2023/05/18 04:15:57;;;;;;;5.83;1.90;;;;;;;;;;4996626;28;20211;-75
2023/05/18 04:18:22;;;;;;;4.67;2.37;;;;;;;;;;4994116;28;20462;-76
2023/05/18 04:20:48;;;;;;;7.00;2.20;;;;;;;;;;4996774;28;20274;-73
2023/05/18 04:23:14;;;;;;;2.53;1.70;;;;;;;;;;4992415;28;20211;-75
2023/05/18 04:25:40;;;;;;;8.47;2.33;;;;;;;;;;4997891;28;20258;-75
2023/05/18 04:28:05;;;;;;;2.90;2.00;;;;;;;;;;4993074;28;20747;-75
2023/05/18 04:30:31;;;;;;;6.43;2.47;;;;;;;;;;4989184;28;21401;-75
2023/05/18 04:32:59;;;;;;;5.70;2.30;;;;;;;;;;4995893;28;20560;-75
2023/05/18 04:35:25;;;;;;;5.90;2.57;;;;;;;;;;4994701;28;20215;-75
2023/05/18 04:37:50;;;;;;;5.30;2.10;;;;;;;;;;4997362;28;20180;-75
2023/05/18 04:40:16;;;;;;;10.17;2.73;;;;;;;;;;4993617;28;20603;-74
2023/05/18 04:42:46;;;;;;;9.10;2.90;;;;;;;;;;4994144;28;20678;-75
2023/05/18 04:45:15;;;;;;;5.43;2.00;;;;;;;;;;4991429;28;20241;-75
2023/05/18 04:47:40;;;;;;;7.90;2.53;;;;;;;;;;4989440;28;20431;-75
2023/05/18 04:50:05;;;;;;;5.10;2.13;;;;;;;;;;4995885;28;20220;-75
2023/05/18 04:52:35;;;;;;;5.97;2.10;;;;;;;;;;4989303;28;20180;-75
2023/05/18 04:55:00;;;;;;;6.37;2.37;;;;;;;;;;4988337;28;20199;-74
2023/05/18 04:57:26;;;;;;;8.17;2.43;;;;;;;;;;4992495;28;20435;-74
2023/05/18 04:59:52;;;;;;;9.47;3.00;;;;;;;;;;4994125;28;20194;-75
2023/05/18 05:02:17;;;;;;;4.43;2.17;;;;;;;;;;4994505;28;20569;-75
2023/05/18 05:04:43;;;;;;;3.90;2.47;;;;;;;;;;4988474;28;20200;-75
2023/05/18 05:07:08;;;;;;;5.07;2.03;;;;;;;;;;4998118;28;20234;-74
2023/05/18 05:09:33;;;;;;;5.03;2.00;;;;;;;;;;4996345;28;20642;-75
2023/05/18 05:11:58;;;;;;;6.17;2.27;;;;;;;;;;4991535;28;20207;-74
2023/05/18 05:14:24;;;;;;;9.37;2.40;;;;;;;;;;4993051;28;20238;-74
2023/05/18 05:16:49;;;;;;;5.07;2.17;;;;;;;;;;4992069;28;20190;-75
2023/05/18 05:19:14;;;;;;;3.30;2.13;;;;;;;;;;4985283;28;20200;-75
2023/05/18 05:21:40;;;;;;;4.73;2.27;;;;;;;;;;4985323;28;20188;-75
2023/05/18 05:24:06;;;;;;;3.57;2.23;;;;;;;;;;4985637;28;20286;-75
2023/05/18 05:26:32;;;;;;;3.80;2.27;;;;;;;;;;4987371;28;20196;-74
2023/05/18 05:28:57;;;;;;;8.13;2.57;;;;;;;;;;4985223;28;20211;-75
2023/05/18 05:31:22;;;;;;;5.40;1.97;;;;;;;;;;4988461;28;20724;-74
2023/05/18 05:33:47;;;;;;;6.73;2.17;;;;;;;;;;4988122;28;20172;-74
2023/05/18 05:36:12;;;;;;;4.97;2.00;;;;;;;;;;4986575;28;20184;-74
2023/05/18 05:38:38;;;;;;;6.83;2.13;;;;;;;;;;4988733;28;20172;-74
2023/05/18 05:41:03;;;;;;;3.43;2.50;;;;;;;;;;4992582;28;20183;-75
2023/05/18 05:43:28;;;;;;;4.93;1.80;;;;;;;;;;4986638;28;20187;-74
2023/05/18 05:45:53;;;;;;;6.10;2.40;;;;;;;;;;4995364;28;20212;-74
2023/05/18 05:48:19;;;;;;;4.23;1.93;;;;;;;;;;4996191;28;20225;-74
2023/05/18 05:50:44;;;;;;;4.73;1.70;;;;;;;;;;4997129;28;20182;-74
2023/05/18 05:53:09;;;;;;;8.90;2.90;;;;;;;;;;4979426;28;20641;-74
2023/05/18 05:55:40;;;;;;;3.90;2.17;;;;;;;;;;4992685;28;20207;-74
2023/05/18 05:58:09;;;;;;;12.20;2.67;;;;;;;;;;4989325;28;20191;-74
2023/05/18 06:00:34;;;;;;;5.10;2.33;;;;;;;;;;4984107;28;20907;-74
2023/05/18 06:02:59;;;;;;;5.60;2.23;;;;;;;;;;4988947;28;20186;-75
2023/05/18 06:05:25;;;;;;;4.47;2.17;;;;;;;;;;4995327;28;20199;-75
2023/05/18 06:07:50;;;;;;;6.13;2.67;;;;;;;;;;4997997;28;20221;-75
2023/05/18 06:10:15;;;;;;;9.30;2.30;;;;;;;;;;4989303;28;20210;-74
2023/05/18 06:12:41;;;;;;;10.57;2.50;;;;;;;;;;4996153;28;20183;-75
2023/05/18 06:15:06;;;;;;;5.77;2.27;;;;;;;;;;5008052;22;20716;-69
2023/05/18 06:17:31;;;;;;;5.17;2.33;;;;;;;;;;5007085;28;20246;-69
2023/05/18 06:19:57;;;;;;;6.30;2.20;;;;;;;;;;5008996;28;20216;-69
2023/05/18 06:22:22;;;;;;;9.23;1.97;;;;;;;;;;5008382;28;20183;-70
2023/05/18 06:24:47;;;;;;;4.93;2.43;;;;;;;;;;5009138;28;20199;-69
2023/05/18 06:27:12;;;;;;;5.13;1.90;;;;;;;;;;4999508;28;20186;-69
2023/05/18 06:29:38;;;;;;;5.93;2.33;;;;;;;;;;5000254;28;20504;-70
2023/05/18 06:32:03;;;;;;;6.80;2.10;;;;;;;;;;5000739;28;20175;-69
2023/05/18 06:34:28;;;;;;;6.70;2.23;;;;;;;;;;5000883;28;22609;-70
2023/05/18 06:36:53;;;;;;;5.73;2.00;;;;;;;;;;5003541;28;20660;-70
2023/05/18 06:39:19;;;;;;;6.33;3.27;;;;;;;;;;5000652;28;20274;-70
2023/05/18 06:41:44;;;;;;;5.17;1.77;;;;;;;;;;4999840;28;20187;-70
2023/05/18 06:44:09;;;;;;;4.27;2.00;;;;;;;;;;4998862;28;20206;-70
2023/05/18 06:46:35;;;;;;;8.40;2.17;;;;;;;;;;5003179;28;20182;-70
2023/05/18 06:49:00;;;;;;;6.63;1.83;;;;;;;;;;5000822;28;20211;-70
2023/05/18 06:51:25;;;;;;;5.63;1.73;;;;;;;;;;4999895;28;20175;-70
2023/05/18 06:53:50;;;;;;;7.37;1.67;;;;;;;;;;5000887;28;20660;-71
2023/05/18 06:56:17;;;;;;;6.07;1.93;;;;;;;;;;5000590;28;20229;-70
2023/05/18 06:58:42;;;;;;;10.60;2.25;;;;;;;;;;4998171;28;20915;-70
2023/05/18 07:01:08;;;;;;;10.38;2.00;;;;;;;;;;4998095;28;20185;-71
2023/05/18 07:03:34;;;;;;;4.63;1.40;;;;;;;;;;4996759;28;20549;-70
2023/05/18 07:05:59;;;;;;;6.65;2.10;;;;;;;;;;5000502;28;20238;-70
2023/05/18 07:08:24;;;;;;;8.77;1.98;;;;;;;;;;5000563;28;20286;-70
2023/05/18 07:10:50;;;;;;;6.57;1.88;;;;;;;;;;4999737;28;20206;-70
2023/05/18 07:13:15;;;;;;;5.88;2.28;;;;;;;;;;5000211;28;20245;-71
2023/05/18 07:15:40;;;;;;;5.85;1.70;;;;;;;;;;4998891;28;20230;-71
2023/05/18 07:18:05;;;;;;;8.77;2.13;;;;;;;;;;5000584;28;20191;-71
2023/05/18 07:20:31;;;;;;;11.05;2.17;;;;;;;;;;4988647;28;20266;-70
2023/05/18 07:22:56;;;;;;;7.15;2.42;;;;;;;;;;5002014;28;20203;-71
2023/05/18 07:25:21;;;;;;;7.80;2.42;;;;;;;;;;5011833;28;20205;-70
2023/05/18 07:27:47;;;;;;;6.28;2.55;;;;;;;;;;5010814;28;20179;-70
2023/05/18 07:30:12;;;;;;;5.35;2.08;;;;;;;;;;5011636;28;20636;-69
2023/05/18 07:32:37;;;;;;;5.35;1.75;;;;;;;;;;5006505;28;20295;-69
2023/05/18 07:35:03;;;;;;;10.02;2.38;;;;;;;;;;5009324;28;20203;-70
2023/05/18 07:37:29;;;;;;;3.85;1.88;;;;;;;;;;5007976;28;20182;-70
2023/05/18 07:39:54;;;;;;;4.60;1.83;;;;;;;;;;5008699;28;20183;-70
2023/05/18 07:42:19;;;;;;;5.32;1.50;;;;;;;;;;5007503;28;21793;-70
2023/05/18 07:44:44;;;;;;;1.98;1.45;;;;;;;;;;5005581;28;20203;-69
2023/05/18 07:47:10;;;;;;;4.43;2.03;;;;;;;;;;5005249;28;20175;-70
2023/05/18 07:49:37;;;;;;;3.08;1.52;;;;;;;;;;5006817;28;20676;-70
2023/05/18 07:52:03;;;;;;;6.85;2.28;;;;;;;;;;5007612;28;20179;-70
2023/05/18 07:54:28;;;;;;;7.00;2.50;;;;;;;;;;5009693;28;20210;-70
2023/05/18 07:56:53;;;;;;;4.60;1.80;;;;;;;;;;5009333;28;20182;-70
2023/05/18 07:59:18;;;;;;;8.00;3.17;;;;;;;;;;5006307;28;20712;-70
2023/05/18 08:01:44;;;;;;;6.88;2.38;;;;;;;;;;5012287;28;20183;-70
2023/05/18 08:04:09;;;;;;;7.75;1.98;;;;;;;;;;4997707;28;20188;-70
2023/05/18 08:06:35;;;;;;;4.43;1.77;;;;;;;;;;5007944;28;20184;-70
2023/05/18 08:09:00;;;;;;;3.30;1.52;;;;;;;;;;5009740;28;20206;-71
2023/05/18 08:11:26;;;;;;;6.07;1.92;;;;;;;;;;5009752;28;20195;-70
2023/05/18 08:13:51;;;;;;;3.95;1.75;;;;;;;;;;5003704;28;20562;-70
2023/05/18 08:16:17;;;;;;;7.95;1.80;;;;;;;;;;5016874;28;20210;-70
2023/05/18 08:18:42;;;;;;;3.83;1.30;;;;;;;;;;5010630;28;20179;-71
2023/05/18 08:21:08;;;;;;;8.05;3.08;;;;;;;;;;5007846;28;20179;-71
2023/05/18 08:23:34;;;;;;;6.35;1.73;;;;;;;;;;5004034;28;20216;-70
2023/05/18 08:25:59;;;;;;;5.72;1.92;;;;;;;;;;5010223;28;20214;-70
2023/05/18 08:28:24;;;;;;;6.57;2.50;;;;;;;;;;5011388;28;20190;-70
2023/05/18 08:30:50;;;;;;;3.92;1.63;;;;;;;;;;5007217;28;20193;-70
2023/05/18 08:33:16;;;;;;;5.13;1.88;;;;;;;;;;5008643;28;20179;-71
2023/05/18 08:35:41;;;;;;;6.95;1.80;;;;;;;;;;5011029;28;20198;-70
2023/05/18 08:38:06;;;;;;;3.15;1.40;;;;;;;;;;5008251;28;20176;-70
2023/05/18 08:40:34;;;;;;;5.65;1.80;;;;;;;;;;5011593;28;20201;-70
2023/05/18 08:43:07;;;;;;;3.78;1.67;;;;;;;;;;5008780;28;20753;-70
2023/05/18 08:45:38;;;;;;;2.88;1.60;;;;;;;;;;5004599;28;20210;-71
2023/05/18 08:48:04;;;;;;;9.30;1.88;;;;;;;;;;5003580;28;20388;-70
2023/05/18 08:50:30;;;;;;;3.10;1.75;;;;;;;;;;5004634;28;20290;-70
2023/05/18 08:52:59;;;;;;;6.15;1.77;;;;;;;;;;5005764;28;20198;-71
2023/05/18 08:55:25;;;;;;;4.30;1.73;;;;;;;;;;5005955;28;20199;-71
2023/05/18 08:57:58;;;;;;;8.07;1.98;;;;;;;;;;5012421;28;20629;-69
2023/05/18 09:00:24;;;;;;;4.05;1.60;;;;;;;;;;5011897;28;20669;-69
2023/05/18 09:02:49;;;;;;;4.90;2.50;;;;;;;;;;5008778;28;20187;-69
2023/05/18 09:05:15;;;;;;;6.32;1.60;;;;;;;;;;5009582;28;20202;-69
2023/05/18 09:07:41;;;;;;;6.00;1.98;;;;;;;;;;5008544;28;20596;-69
2023/05/18 09:10:08;;;;;;;4.85;1.73;;;;;;;;;;5008624;28;20673;-70
2023/05/18 09:12:34;;;;;;;4.63;2.10;;;;;;;;;;4996610;28;20773;-69
2023/05/18 09:15:00;;;;;;;5.68;1.67;;;;;;;;;;5017104;28;20233;-69
2023/05/18 09:17:25;;;;;;;7.03;2.22;;;;;;;;;;5004964;28;20181;-69
2023/05/18 09:19:50;;;;;;;7.60;1.98;;;;;;;;;;5013812;28;20237;-70
2023/05/18 09:22:15;;;;;;;9.02;1.83;;;;;;;;;;5001108;28;20250;-70
2023/05/18 09:24:41;;;;;;;2.05;1.23;;;;;;;;;;5004162;28;20195;-70
2023/05/18 09:27:06;;;;;;;7.43;1.77;;;;;;;;;;5000508;28;20233;-70
2023/05/18 09:29:31;;;;;;;3.88;1.45;;;;;;;;;;5002041;28;20298;-70
2023/05/18 09:32:00;;;;;;;5.68;1.42;;;;;;;;;;5001210;28;20183;-71
2023/05/18 09:34:37;;;;;;;3.47;1.73;;;;;;;;;;4999558;28;20585;-69
2023/05/18 09:37:02;;;;;;;6.18;1.63;;;;;;;;;;5002323;28;20179;-69
2023/05/18 09:39:28;;;;;;;5.55;1.77;;;;;;;;;;4995125;28;20193;-70
2023/05/18 09:41:56;;;;;;;7.38;1.80;;;;;;;;;;4999481;28;20610;-69
2023/05/18 09:44:34;;;;;;;9.88;2.00;;;;;;;;;;4997604;28;20288;-69
2023/05/18 09:46:59;;;;;;;5.97;2.17;;;;;;;;;;4998401;28;20230;-69
2023/05/18 09:49:24;;;;;;;5.20;2.13;;;;;;;;;;5002002;28;20276;-70
2023/05/18 09:51:50;;;;;;;4.35;1.67;;;;;;;;;;5004223;28;20646;-69
2023/05/18 09:54:15;;;;;;;3.92;1.55;;;;;;;;;;4998453;28;20272;-70
2023/05/18 09:56:43;;;;;;;4.80;2.10;;;;;;;;;;4999529;28;20706;-70
2023/05/18 09:59:09;;;;;;;3.35;1.48;;;;;;;;;;4998704;28;20190;-70
2023/05/18 10:01:35;;;;;;;5.32;1.42;;;;;;;;;;5001645;28;20180;-69
2023/05/18 10:04:03;;;;;;;6.80;1.88;;;;;;;;;;4999022;28;20198;-69
2023/05/18 10:06:30;;;;;;;5.10;1.73;;;;;;;;;;5001228;28;20753;-69
2023/05/18 10:08:56;;;;;;;8.93;2.95;;;;;;;;;;5010431;28;20748;-69
2023/05/18 10:11:22;;;;;;;6.32;1.65;;;;;;;;;;5013389;28;20275;-69
2023/05/18 10:13:52;;;;;;;5.03;2.28;;;;;;;;;;5008361;28;20210;-69
2023/05/18 10:16:17;;;;;;;7.80;1.95;;;;;;;;;;5008560;28;20761;-70
2023/05/18 10:18:42;;;;;;;3.65;1.58;;;;;;;;;;5008894;28;20175;-70
2023/05/18 10:21:08;;;;;;;8.35;1.52;;;;;;;;;;5010138;28;20195;-70
2023/05/18 10:23:34;;;;;;;5.72;2.05;;;;;;;;;;5008408;28;20183;-70
2023/05/18 10:25:59;;;;;;;5.40;1.67;;;;;;;;;;5009507;28;20206;-70
2023/05/18 10:28:27;;;;;;;5.22;1.80;;;;;;;;;;5004918;28;20198;-70
2023/05/18 10:30:53;;;;;;;2.65;1.88;;;;;;;;;;5001087;28;20166;-70
2023/05/18 10:33:22;;;;;;;5.68;1.60;;;;;;;;;;5000452;28;20181;-70
2023/05/18 10:35:48;;;;;;;10.25;1.70;;;;;;;;;;5000539;28;20286;-70
2023/05/18 10:38:24;;;;;;;6.30;2.00;;;;;;;;;;5001221;28;20262;-70
2023/05/18 10:40:50;;;;;;;4.68;1.80;;;;;;;;;;5000296;28;20249;-70
2023/05/18 10:43:18;;;;;;;6.15;1.58;;;;;;;;;;5000366;28;20171;-70
2023/05/18 10:45:45;;;;;;;6.80;1.90;;;;;;;;;;5000421;28;20206;-70
2023/05/18 10:48:11;;;;;;;3.20;1.70;;;;;;;;;;5003294;28;20186;-69
2023/05/18 10:50:37;;;;;;;3.30;1.45;;;;;;;;;;5007710;28;20183;-69
2023/05/18 10:53:04;;;;;;;5.13;1.60;;;;;;;;;;5008840;28;20337;-69
2023/05/18 10:55:30;;;;;;;4.60;2.03;;;;;;;;;;4997596;28;20199;-69
2023/05/18 10:57:57;;;;;;;4.30;1.60;;;;;;;;;;5006690;28;20561;-69
2023/05/18 11:00:22;;;;;;;5.40;1.48;;;;;;;;;;4998974;28;20265;-69
2023/05/18 11:02:48;;;;;;;8.77;1.75;;;;;;;;;;5007250;28;20203;-69
2023/05/18 11:05:13;;;;;;;3.97;1.42;;;;;;;;;;5007574;28;20198;-69
2023/05/18 11:07:39;;;;;;;3.83;1.92;;;;;;;;;;5008105;28;20197;-69
2023/05/18 11:10:08;;;;;;;5.88;2.00;;;;;;;;;;5006303;28;20281;-69
2023/05/18 11:12:35;;;;;;;4.18;1.77;;;;;;;;;;5004764;28;20281;-69
2023/05/18 11:15:00;;;;;;;4.18;1.67;;;;;;;;;;5006021;28;20681;-69
2023/05/18 11:17:28;;;;;;;3.90;1.83;;;;;;;;;;5010869;28;20198;-69
2023/05/18 11:20:11;;;;;;;7.68;2.03;;;;;;;;;;5010898;28;20191;-69
2023/05/18 11:22:40;;;;;;;5.53;2.65;;;;;;;;;;5011176;28;20225;-70
2023/05/18 11:25:07;;;;;;;5.82;2.05;;;;;;;;;;5009755;28;20237;-69
2023/05/18 11:27:32;;;;;;;4.85;1.90;;;;;;;;;;5000957;28;20199;-70
2023/05/18 11:29:58;;;;;;;2.70;1.75;;;;;;;;;;5005326;28;20676;-70
2023/05/18 11:32:25;;;;;;;3.63;1.67;;;;;;;;;;5006817;28;20223;-69
2023/05/18 11:34:51;;;;;;;3.45;1.92;;;;;;;;;;5005877;28;20676;-69
2023/05/18 11:37:35;;;;;;;4.43;1.98;;;;;;;;;;5005944;28;20687;-69
2023/05/18 11:40:01;;;;;;;8.18;2.40;;;;;;;;;;5001368;28;20171;-69
2023/05/18 11:42:30;;;;;;;5.72;1.95;;;;;;;;;;5008817;28;20183;-70
2023/05/18 11:44:56;;;;;;;6.40;2.08;;;;;;;;;;5006744;28;20222;-69
2023/05/18 11:47:22;;;;;;;5.55;1.80;;;;;;;;;;5009750;28;20222;-69
2023/05/18 11:49:49;;;;;;;4.97;1.80;;;;;;;;;;5012322;28;20658;-68
2023/05/18 11:52:14;;;;;;;3.85;1.73;;;;;;;;;;5018332;28;20600;-69
2023/05/18 11:54:45;;;;;;;7.90;2.30;;;;;;;;;;5007523;28;20256;-69
2023/05/18 11:57:12;;;;;;;5.80;1.90;;;;;;;;;;5008607;28;20417;-69
2023/05/18 11:59:45;;;;;;;5.25;1.70;;;;;;;;;;5006564;28;20265;-70
2023/05/18 12:02:11;;;;;;;9.60;2.65;;;;;;;;;;5004140;28;20176;-70
2023/05/18 12:04:46;;;;;;;4.25;1.63;;;;;;;;;;5004850;28;20187;-70
2023/05/18 12:07:12;;;;;;;5.28;1.77;;;;;;;;;;5010386;28;20258;-69
2023/05/18 12:09:41;;;;;;;8.07;1.73;;;;;;;;;;5011680;28;20732;-70
2023/05/18 12:12:07;;;;;;;2.55;1.58;;;;;;;;;;5001608;28;20176;-70
2023/05/18 12:14:33;;;;;;;5.03;1.75;;;;;;;;;;5005621;28;20252;-70
2023/05/18 12:17:00;;;;;;;4.45;2.10;;;;;;;;;;5003255;28;20218;-69
2023/05/18 12:19:25;;;;;;;9.38;2.63;;;;;;;;;;5001921;28;20199;-70
2023/05/18 12:21:50;;;;;;;4.63;1.92;;;;;;;;;;5004113;28;20167;-68
2023/05/18 12:24:15;;;;;;;5.35;1.63;;;;;;;;;;5009570;28;20225;-68
2023/05/18 12:26:41;;;;;;;3.70;1.85;;;;;;;;;;4993889;28;20179;-68
2023/05/18 12:29:06;;;;;;;4.15;1.77;;;;;;;;;;5001100;28;20232;-68
2023/05/18 12:31:31;;;;;;;4.40;1.73;;;;;;;;;;5004445;28;20189;-69
2023/05/18 12:33:57;;;;;;;5.13;1.90;;;;;;;;;;4997212;28;20180;-69
2023/05/18 12:36:22;;;;;;;2.33;1.63;;;;;;;;;;5009957;28;20204;-69
2023/05/18 12:38:50;;;;;;;2.70;1.65;;;;;;;;;;5002290;28;20211;-69
2023/05/18 12:41:28;;;;;;;4.32;1.70;;;;;;;;;;4990021;28;20197;-69
2023/05/18 12:43:54;;;;;;;8.55;2.58;;;;;;;;;;4989411;28;21791;-69
2023/05/18 12:46:20;;;;;;;3.22;1.70;;;;;;;;;;4989613;28;20490;-69
2023/05/18 12:48:45;;;;;;;6.57;2.33;;;;;;;;;;4995109;28;20175;-69
2023/05/18 12:51:20;;;;;;;8.52;1.95;;;;;;;;;;4990036;28;20558;-69
2023/05/18 12:53:48;;;;;;;6.50;1.85;;;;;;;;;;4991103;28;20190;-68
2023/05/18 12:56:14;;;;;;;3.40;1.60;;;;;;;;;;4988792;28;20372;-70
2023/05/18 12:58:39;;;;;;;4.03;2.10;;;;;;;;;;4991323;28;21188;-69
2023/05/18 13:01:08;;;;;;;5.65;2.30;;;;;;;;;;4990262;28;20183;-70
2023/05/18 13:03:34;;;;;;;4.63;1.85;;;;;;;;;;4989411;28;20267;-69
2023/05/18 13:06:06;;;;;;;3.67;1.95;;;;;;;;;;4990218;28;20577;-69
2023/05/18 13:08:32;;;;;;;7.10;2.05;;;;;;;;;;4989897;28;20570;-69
2023/05/18 13:11:04;;;;;;;2.58;1.75;;;;;;;;;;4990405;28;20202;-69
2023/05/18 13:13:29;;;;;;;4.03;1.83;;;;;;;;;;4989634;28;20183;-69
2023/05/18 13:15:58;;;;;;;3.70;1.95;;;;;;;;;;4992572;28;20261;-69
2023/05/18 13:18:23;;;;;;;3.95;1.98;;;;;;;;;;4990712;28;20893;-72
2023/05/18 13:20:50;;;;;;;4.53;2.10;;;;;;;;;;4992796;28;20198;-69
2023/05/18 13:23:20;;;;;;;5.35;2.05;;;;;;;;;;4996807;28;20657;-69
2023/05/18 13:25:45;;;;;;;4.10;1.90;;;;;;;;;;5007255;28;20218;-69
2023/05/18 13:28:11;;;;;;;6.18;2.50;;;;;;;;;;5002318;28;20878;-70
2023/05/18 13:30:37;;;;;;;3.40;1.67;;;;;;;;;;4990189;28;20428;-70
2023/05/18 13:33:03;;;;;;;3.42;1.73;;;;;;;;;;4987947;28;20175;-69
2023/05/18 13:35:29;;;;;;;6.78;1.92;;;;;;;;;;4989424;28;20341;-69
2023/05/18 13:37:54;;;;;;;2.63;1.65;;;;;;;;;;4987004;28;20266;-70
2023/05/18 13:40:20;;;;;;;6.15;2.30;;;;;;;;;;4987883;28;20199;-70
2023/05/18 13:42:46;;;;;;;4.45;1.85;;;;;;;;;;4990256;28;20179;-70
2023/05/18 13:45:11;;;;;;;9.35;2.00;;;;;;;;;;4989922;28;20213;-70
2023/05/18 13:47:37;;;;;;;6.28;2.50;;;;;;;;;;4989642;28;20183;-69
2023/05/18 13:50:02;;;;;;;6.28;2.28;;;;;;;;;;5003490;28;20620;-70
2023/05/18 13:52:28;;;;;;;4.35;2.13;;;;;;;;;;4989053;28;20179;-70
2023/05/18 13:54:53;;;;;;;6.73;2.10;;;;;;;;;;4991260;28;20665;-70
2023/05/18 13:57:18;;;;;;;4.57;1.90;;;;;;;;;;4988440;28;20440;-70
2023/05/18 13:59:43;;;;;;;5.40;2.35;;;;;;;;;;4988349;28;20307;-70
2023/05/18 14:02:09;;;;;;;4.50;1.70;;;;;;;;;;4990537;28;20293;-70
2023/05/18 14:04:35;;;;;;;5.63;2.13;;;;;;;;;;4990678;28;20207;-69
2023/05/18 14:07:01;;;;;;;4.03;2.08;;;;;;;;;;4991480;28;20439;-69
2023/05/18 14:09:27;;;;;;;5.88;1.92;;;;;;;;;;4989204;28;20191;-69
2023/05/18 14:11:52;;;;;;;6.55;2.53;;;;;;;;;;4990146;28;20194;-69
2023/05/18 14:14:17;;;;;;;3.50;1.80;;;;;;;;;;4988113;28;20202;-69
2023/05/18 14:16:43;;;;;;;5.20;2.00;;;;;;;;;;4989921;28;20195;-69
2023/05/18 14:19:08;;;;;;;3.20;1.83;;;;;;;;;;4988317;28;20457;-69
2023/05/18 14:21:33;;;;;;;3.35;1.67;;;;;;;;;;4987906;28;20269;-69
2023/05/18 14:24:02;;;;;;;4.93;2.00;;;;;;;;;;4988510;28;20933;-69
2023/05/18 14:26:27;;;;;;;4.50;1.63;;;;;;;;;;4990784;28;20201;-70
2023/05/18 14:28:52;;;;;;;6.82;2.30;;;;;;;;;;4987100;28;20190;-70
2023/05/18 14:31:18;;;;;;;5.67;2.13;;;;;;;;;;4988469;28;20645;-70
2023/05/18 14:33:43;;;;;;;9.30;2.03;;;;;;;;;;4992583;28;20450;-70
2023/05/18 14:36:08;;;;;;;4.03;2.00;;;;;;;;;;4987606;28;20590;-70
2023/05/18 14:38:33;;;;;;;5.17;1.83;;;;;;;;;;4987829;28;20827;-70